Time;durP1;ratioP1;P1;durP2;ratioP2;P2;SDS_P1;SDS_P2;PMS_P1;PMS_P2;Temp;Humidity;BMP_temperature;BMP_pressure;BME280_temperature;BME280_humidity;BME280_pressure;Samples;Min_cycle;Max_cycle;Signal;HPM_P1;HPM_P2
2022/09/16 00:00:50;;;;;;;;;;;;;;;26.70;70.32;97630.06;4989346;28;20413;-68
2022/09/16 00:03:39;;;;;;;;;;;;;;;26.55;70.75;97628.00;4955046;28;19926;-69
2022/09/16 00:06:25;;;;;;;;;;;;;;;26.63;70.78;97638.09;4985320;28;19976;-68
2022/09/16 00:09:13;;;;;;;;;;;;;;;26.73;71.12;97640.38;5004194;28;20021;-69
2022/09/16 00:11:56;;;;;;;;;;;;;;;26.80;71.22;97639.00;5008082;28;19937;-68
2022/09/16 00:14:44;;;;;;;;;;;;;;;26.55;71.71;97650.00;5008230;28;20016;-68
2022/09/16 00:17:28;;;;;;;;;;;;;;;26.55;70.79;97647.25;5007708;28;20321;-69
2022/09/16 00:20:17;;;;;;;;;;;;;;;26.45;70.93;97655.97;5007303;28;19925;-69
2022/09/16 00:23:00;;;;;;;;;;;;;;;26.60;71.06;97660.81;5007331;28;20281;-69
2022/09/16 00:25:52;;;;;;;;;;;;;;;26.73;70.76;97648.66;4990920;28;19929;-69
2022/09/16 00:28:35;;;;;;;;;;;;;;;26.64;71.80;97658.19;5005453;28;19925;-69
2022/09/16 00:31:30;;;;;;;;;;;;;;;26.65;71.18;97654.25;5006282;28;19952;-69
2022/09/16 00:34:05;;;;;;;;;;;;;;;26.69;71.57;97653.25;5006408;28;19922;-68
2022/09/16 00:36:53;;;;;;;;;;;;;;;26.78;71.64;97655.06;5008083;28;19921;-70
2022/09/16 00:39:36;;;;;;;;;;;;;;;26.95;70.97;97657.53;5007665;28;20008;-69
2022/09/16 00:42:31;;;;;;;;;;;;;;;26.82;70.65;97644.94;5006761;28;19928;-69
2022/09/16 00:45:06;;;;;;;;;;;;;;;27.03;70.99;97631.00;5011925;28;20018;-68
2022/09/16 00:48:06;;;;;;;;;;;;;;;26.98;71.70;97625.75;5027338;28;19982;-69
2022/09/16 00:50:44;;;;;;;;;;;;;;;27.20;70.58;97621.66;5027000;28;19925;-69
2022/09/16 00:53:44;;;;;;;;;;;;;;;27.15;69.90;97618.00;5026732;28;19929;-69
2022/09/16 00:56:22;;;;;;;;;;;;;;;27.12;70.42;97620.66;5014744;28;19937;-69
2022/09/16 00:59:25;;;;;;;;;;;;;;;27.20;69.76;97622.44;5005564;28;20035;-69
2022/09/16 01:02:16;;;;;;;;;;;;;;;26.93;71.51;97611.06;5005154;28;20253;-68
2022/09/16 01:05:07;;;;;;;;;;;;;;;27.06;71.61;97613.81;4988108;28;19922;-68
2022/09/16 01:07:49;;;;;;;;;;;;;;;27.08;70.68;97606.78;5004720;28;19925;-69
2022/09/16 01:10:38;;;;;;;;;;;;;;;27.21;70.93;97620.50;5003906;28;19984;-69
2022/09/16 01:13:19;;;;;;;;;;;;;;;27.36;70.74;97618.97;5006078;28;19929;-68
2022/09/16 01:16:10;;;;;;;;;;;;;;;27.27;70.79;97619.94;5002473;28;19987;-66
2022/09/16 01:19:08;;;;;;;;;;;;;;;27.21;71.18;97621.31;5004225;28;19941;-68
2022/09/16 01:21:49;;;;;;;;;;;;;;;27.18;71.67;97626.72;5006618;28;19929;-69
2022/09/16 01:24:55;;;;;;;;;;;;;;;27.42;71.69;97623.91;5005328;28;20012;-68
2022/09/16 01:27:44;;;;;;;;;;;;;;;27.62;71.03;97640.56;5005707;28;20029;-68
2022/09/16 01:30:39;;;;;;;;;;;;;;;27.72;71.41;97640.84;5006755;28;19925;-68
2022/09/16 01:33:28;;;;;;;;;;;;;;;27.76;71.00;97640.91;5005983;28;19987;-67
2022/09/16 01:36:41;;;;;;;;;;;;;;;27.80;70.65;97641.84;5006051;28;19932;-67
2022/09/16 01:39:19;;;;;;;;;;;;;;;28.00;69.78;97647.47;4985112;28;19922;-68
2022/09/16 01:42:16;;;;;;;;;;;;;;;28.05;69.79;97661.81;4985892;28;19988;-69
2022/09/16 01:45:08;;;;;;;;;;;;;;;28.21;68.70;97656.28;4998333;28;19928;-68
2022/09/16 01:48:10;;;;;;;;;;;;;;;28.32;68.05;97656.53;5004910;28;19925;-70
2022/09/16 01:50:48;;;;;;;;;;;;;;;28.33;68.23;97665.63;5007115;28;19921;-68
2022/09/16 01:53:45;;;;;;;;;;;;;;;27.86;69.84;97669.91;5007150;28;20052;-69
2022/09/16 01:56:23;;;;;;;;;;;;;;;28.01;70.00;97679.41;5010422;28;19980;-69
2022/09/16 01:59:25;;;;;;;;;;;;;;;28.06;69.54;97679.94;5007269;28;20012;-69
2022/09/16 02:02:31;;;;;;;;;;;;;;;27.85;68.86;97677.38;5005550;28;20016;-68
2022/09/16 02:05:24;;;;;;;;;;;;;;;28.02;69.58;97679.03;5006942;28;19980;-68
2022/09/16 02:08:11;;;;;;;;;;;;;;;27.86;70.36;97681.75;5006167;28;19929;-69
2022/09/16 02:11:02;;;;;;;;;;;;;;;28.05;68.05;97683.88;5008015;28;20418;-68
2022/09/16 02:14:00;;;;;;;;;;;;;;;28.01;68.19;97684.91;5010666;28;19928;-68
2022/09/16 02:17:02;;;;;;;;;;;;;;;27.80;68.90;97702.47;5010354;28;20016;-68
2022/09/16 02:19:53;;;;;;;;;;;;;;;27.78;68.62;97696.50;5009523;28;19929;-69
2022/09/16 02:22:50;;;;;;;;;;;;;;;28.05;68.16;97697.66;5009709;28;19995;-68
2022/09/16 02:25:34;;;;;;;;;;;;;;;28.14;67.72;97705.75;5009713;28;19921;-68
2022/09/16 02:28:26;;;;;;;;;;;;;;;27.80;68.78;97704.41;5009989;28;19929;-69
2022/09/16 02:31:08;;;;;;;;;;;;;;;27.97;68.01;97703.31;5009950;28;19956;-66
2022/09/16 02:34:03;;;;;;;;;;;;;;;27.94;68.37;97704.06;4977946;28;20455;-68
2022/09/16 02:36:47;;;;;;;;;;;;;;;27.88;68.59;97707.06;5004012;28;20004;-69
2022/09/16 02:39:38;;;;;;;;;;;;;;;27.85;68.10;97710.47;5009676;28;19932;-67
2022/09/16 02:42:20;;;;;;;;;;;;;;;28.23;67.22;97719.38;5009332;28;20040;-69
2022/09/16 02:45:09;;;;;;;;;;;;;;;28.25;67.59;97715.09;5009584;28;19969;-69
2022/09/16 02:47:56;;;;;;;;;;;;;;;28.33;67.68;97718.03;5010270;28;20293;-69
2022/09/16 02:50:50;;;;;;;;;;;;;;;28.64;67.15;97711.72;5009838;28;19922;-69
2022/09/16 02:53:31;;;;;;;;;;;;;;;28.05;68.42;97713.38;4991806;28;19933;-69
2022/09/16 02:56:25;;;;;;;;;;;;;;;28.57;67.70;97720.66;5009553;28;19925;-70
2022/09/16 02:59:22;;;;;;;;;;;;;;;28.49;68.14;97711.38;5016299;28;20312;-69
2022/09/16 03:02:12;;;;;;;;;;;;;;;28.40;68.80;97719.03;5025983;28;19924;-67
2022/09/16 03:05:02;;;;;;;;;;;;;;;28.14;68.60;97716.78;5029171;28;19920;-70
2022/09/16 03:07:44;;;;;;;;;;;;;;;28.71;68.25;97725.69;5024185;28;19925;-69
2022/09/16 03:10:35;;;;;;;;;;;;;;;29.11;66.61;97719.13;5009070;28;19922;-70
2022/09/16 03:13:26;;;;;;;;;;;;;;;29.15;67.07;97720.03;5009215;28;19925;-67
2022/09/16 03:16:21;;;;;;;;;;;;;;;29.23;66.09;97718.22;5008416;28;19925;-68
2022/09/16 03:19:08;;;;;;;;;;;;;;;28.93;66.81;97718.72;5009294;28;19975;-70
2022/09/16 03:22:10;;;;;;;;;;;;;;;29.11;67.58;97718.31;4989119;28;20474;-68
2022/09/16 03:25:07;;;;;;;;;;;;;;;29.47;67.66;97715.16;4991820;28;19935;-68
2022/09/16 03:27:54;;;;;;;;;;;;;;;29.37;66.09;97724.06;4988242;28;19984;-68
2022/09/16 03:30:53;;;;;;;;;;;;;;;29.39;66.04;97727.25;4989234;28;19937;-68
2022/09/16 03:33:44;;;;;;;;;;;;;;;29.82;65.03;97719.81;4984831;28;19925;-67
2022/09/16 03:36:29;;;;;;;;;;;;;;;29.43;65.31;97725.34;4988254;28;20011;-68
2022/09/16 03:39:21;;;;;;;;;;;;;;;29.25;66.54;97726.94;4971763;28;19933;-68
2022/09/16 03:42:03;;;;;;;;;;;;;;;29.87;65.81;97721.50;4989397;28;19929;-68
2022/09/16 03:44:53;;;;;;;;;;;;;;;29.98;65.60;97716.16;4993254;28;19987;-68
2022/09/16 03:47:34;;;;;;;;;;;;;;;29.74;65.78;97714.53;5028635;28;19921;-68
2022/09/16 03:50:23;;;;;;;;;;;;;;;30.26;63.99;97719.44;5027916;28;19947;-67
2022/09/16 03:53:04;;;;;;;;;;;;;;;30.39;62.77;97720.09;5028697;28;19925;-68
2022/09/16 03:55:55;;;;;;;;;;;;;;;30.60;63.85;97725.19;5019332;28;19926;-67
2022/09/16 03:58:50;;;;;;;;;;;;;;;30.67;62.24;97718.16;5009152;28;19957;-68
2022/09/16 04:01:45;;;;;;;;;;;;;;;30.54;62.50;97717.56;5006792;28;19931;-67
2022/09/16 04:04:34;;;;;;;;;;;;;;;30.46;63.05;97713.88;5005652;28;19979;-67
2022/09/16 04:07:17;;;;;;;;;;;;;;;29.88;64.68;97716.78;4990327;28;19922;-68
2022/09/16 04:10:06;;;;;;;;;;;;;;;30.59;63.57;97709.75;5008044;28;20691;-67
2022/09/16 04:12:48;;;;;;;;;;;;;;;30.95;63.94;97715.84;5008076;28;19925;-69
2022/09/16 04:15:37;;;;;;;;;;;;;;;30.99;62.39;97713.94;4993281;28;19926;-69
2022/09/16 04:18:27;;;;;;;;;;;;;;;31.25;61.79;97712.28;5007559;28;19940;-69
2022/09/16 04:21:16;;;;;;;;;;;;;;;31.36;60.66;97710.47;5007189;28;20347;-69
2022/09/16 04:23:58;;;;;;;;;;;;;;;31.63;61.85;97713.19;5008055;28;19931;-66
2022/09/16 04:26:53;;;;;;;;;;;;;;;31.34;61.75;97712.03;4992436;28;20028;-69
2022/09/16 04:29:37;;;;;;;;;;;;;;;31.94;61.22;97719.47;5007634;28;19925;-68
2022/09/16 04:32:32;;;;;;;;;;;;;;;32.05;58.62;97706.53;5000926;28;20269;-69
2022/09/16 04:35:07;;;;;;;;;;;;;;;32.03;58.76;97717.22;4995535;28;20012;-68
2022/09/16 04:38:03;;;;;;;;;;;;;;;32.32;59.25;97721.06;4988431;28;19923;-69
2022/09/16 04:40:53;;;;;;;;;;;;;;;32.21;60.04;97711.03;4992527;28;19933;-69
2022/09/16 04:43:42;;;;;;;;;;;;;;;32.47;59.42;97712.88;5009769;28;19925;-69
2022/09/16 04:46:37;;;;;;;;;;;;;;;32.16;59.37;97718.53;5006437;28;20029;-69
2022/09/16 04:49:12;;;;;;;;;;;;;;;33.02;58.87;97718.44;5020089;28;19917;-69
2022/09/16 04:52:00;;;;;;;;;;;;;;;33.46;55.81;97708.34;5009770;28;19921;-68
2022/09/16 04:54:43;;;;;;;;;;;;;;;33.54;54.98;97702.41;5026968;28;19921;-69
2022/09/16 04:57:31;;;;;;;;;;;;;;;33.41;55.19;97711.50;5026631;28;20028;-70
2022/09/16 05:00:20;;;;;;;;;;;;;;;34.02;53.30;97706.94;5026812;28;20552;-69
2022/09/16 05:03:11;;;;;;;;;;;;;;;34.19;53.33;97704.63;5026126;28;19925;-70
2022/09/16 05:06:00;;;;;;;;;;;;;;;33.46;55.47;97713.91;5026800;28;19935;-69
2022/09/16 05:08:49;;;;;;;;;;;;;;;33.47;55.48;97705.16;5013662;28;19921;-68
2022/09/16 05:11:41;;;;;;;;;;;;;;;33.76;54.85;97710.06;5007638;28;20316;-69
2022/09/16 05:14:36;;;;;;;;;;;;;;;34.45;53.76;97706.22;5007672;28;19925;-69
2022/09/16 05:17:11;;;;;;;;;;;;;;;34.45;53.30;97707.03;5006887;28;20519;-69
2022/09/16 05:20:28;;;;;;;;;;;;;;;34.68;51.89;97700.25;5006279;28;20016;-69
2022/09/16 05:23:03;;;;;;;;;;;;;;;34.33;54.94;97699.84;4998801;28;19926;-70
2022/09/16 05:25:51;;;;;;;;;;;;;;;33.98;54.21;97702.59;5002468;28;20369;-72
2022/09/16 05:28:34;;;;;;;;;;;;;;;34.98;53.30;97699.03;4976619;28;19925;-71
2022/09/16 05:31:26;;;;;;;;;;;;;;;34.29;53.03;97689.91;4988300;28;19928;-70
2022/09/16 05:34:11;;;;;;;;;;;;;;;34.31;51.91;97684.72;5006042;28;19931;-70
2022/09/16 05:37:02;;;;;;;;;;;;;;;34.96;53.78;97679.13;5004832;28;19925;-72
2022/09/16 05:39:44;;;;;;;;;;;;;;;35.07;54.03;97677.09;5005766;28;19933;-68
2022/09/16 05:42:33;;;;;;;;;;;;;;;35.09;52.83;97674.69;5005962;28;19987;-70
2022/09/16 05:45:16;;;;;;;;;;;;;;;35.14;50.95;97677.09;4995962;28;19925;-70
2022/09/16 05:48:11;;;;;;;;;;;;;;;35.20;53.35;97667.13;5000110;28;19936;-67
2022/09/16 05:51:01;;;;;;;;;;;;;;;35.24;54.16;97670.69;4985148;28;20605;-69
2022/09/16 05:53:51;;;;;;;;;;;;;;;35.14;52.88;97668.72;4998496;28;19932;-68
2022/09/16 05:56:40;;;;;;;;;;;;;;;35.37;52.69;97664.66;5005795;28;20024;-69
2022/09/16 05:59:22;;;;;;;;;;;;;;;34.08;53.32;97665.59;5005280;28;19936;-70
2022/09/16 06:02:18;;;;;;;;;;;;;;;34.82;53.96;97664.00;5001463;28;20016;-69
2022/09/16 06:05:08;;;;;;;;;;;;;;;34.18;54.54;97664.03;4995965;28;19988;-68
2022/09/16 06:07:57;;;;;;;;;;;;;;;34.75;52.16;97664.03;4997299;28;19929;-70
2022/09/16 06:10:39;;;;;;;;;;;;;;;34.88;51.94;97667.97;4992871;28;19925;-70
2022/09/16 06:13:30;;;;;;;;;;;;;;;34.60;51.99;97663.22;4984124;28;20293;-71
2022/09/16 06:16:13;;;;;;;;;;;;;;;35.23;51.29;97655.13;5006296;28;20006;-71
2022/09/16 06:19:05;;;;;;;;;;;;;;;35.49;51.22;97658.63;4991008;28;19925;-71
2022/09/16 06:21:53;;;;;;;;;;;;;;;35.25;50.82;97652.75;4974683;28;19980;-69
2022/09/16 06:24:36;;;;;;;;;;;;;;;35.20;50.34;97647.59;4955155;28;19932;-71
2022/09/16 06:27:24;;;;;;;;;;;;;;;35.44;50.87;97653.47;4986165;28;19930;-71
2022/09/16 06:30:07;;;;;;;;;;;;;;;34.71;49.52;97657.66;4983844;28;20341;-72
2022/09/16 06:33:06;;;;;;;;;;;;;;;35.25;50.83;97652.75;4986724;28;20257;-72
2022/09/16 06:35:41;;;;;;;;;;;;;;;35.41;50.21;97654.28;4986698;28;19933;-72
2022/09/16 06:38:29;;;;;;;;;;;;;;;35.48;50.72;97646.69;4986122;28;20424;-74
2022/09/16 06:41:13;;;;;;;;;;;;;;;35.10;51.81;97653.97;4987043;28;19925;-72
2022/09/16 06:44:01;;;;;;;;;;;;;;;35.28;50.91;97643.56;4986971;28;19934;-72
2022/09/16 06:46:45;;;;;;;;;;;;;;;35.31;51.65;97638.38;4986023;28;20286;-72
2022/09/16 06:49:33;;;;;;;;;;;;;;;35.65;49.56;97636.59;4975878;28;19932;-72
2022/09/16 06:52:23;;;;;;;;;;;;;;;35.81;52.38;97629.75;4966043;28;20420;-72
2022/09/16 06:55:04;;;;;;;;;;;;;;;35.62;50.93;97628.25;4965988;28;19942;-72
2022/09/16 06:57:59;;;;;;;;;;;;;;;35.72;51.88;97619.06;4967055;28;19985;-72
2022/09/16 07:00:47;;;;;;;;;;;;;;;35.55;52.50;97631.09;4960599;28;20011;-72
2022/09/16 07:03:46;;;;;;;;;;;;;;;35.41;49.20;97616.03;5000527;28;19929;-71
2022/09/16 07:06:34;;;;;;;;;;;;;;;35.48;49.29;97613.19;5008540;28;20533;-72
2022/09/16 07:09:43;;;;;;;;;;;;;;;35.77;52.89;97610.25;4988015;28;19936;-72
2022/09/16 07:12:25;;;;;;;;;;;;;;;35.00;50.54;97605.41;4989051;28;19969;-72
2022/09/16 07:15:15;;;;;;;;;;;;;;;35.54;49.73;97607.97;5003983;28;19925;-73
2022/09/16 07:18:00;;;;;;;;;;;;;;;35.80;51.29;97597.47;4991283;28;20000;-72
2022/09/16 07:20:50;;;;;;;;;;;;;;;35.41;52.56;97590.13;5007523;28;19921;-72
2022/09/16 07:23:32;;;;;;;;;;;;;;;35.55;51.53;97587.22;4988107;28;19921;-73
2022/09/16 07:26:22;;;;;;;;;;;;;;;35.33;51.34;97586.56;4987756;28;19926;-73
2022/09/16 07:29:10;;;;;;;;;;;;;;;35.31;52.55;97585.38;4989131;28;19922;-72
2022/09/16 07:32:01;;;;;;;;;;;;;;;34.86;52.08;97574.81;4990863;28;19934;-72
2022/09/16 07:34:42;;;;;;;;;;;;;;;35.05;51.47;97570.75;5005723;28;19926;-72
2022/09/16 07:37:31;;;;;;;;;;;;;;;35.38;49.94;97566.59;5007288;28;19952;-72
2022/09/16 07:40:13;;;;;;;;;;;;;;;35.34;51.42;97553.91;5004399;28;20337;-73
2022/09/16 07:43:06;;;;;;;;;;;;;;;35.75;51.00;97545.66;5009557;28;19960;-72
2022/09/16 07:45:58;;;;;;;;;;;;;;;35.70;50.92;97545.31;5006338;28;19925;-72
2022/09/16 07:48:48;;;;;;;;;;;;;;;35.67;52.15;97533.75;4995897;28;19925;-72
2022/09/16 07:51:29;;;;;;;;;;;;;;;35.14;51.16;97534.84;4985967;28;20032;-71
2022/09/16 07:54:20;;;;;;;;;;;;;;;35.00;55.37;97529.34;4985398;28;19984;-70
2022/09/16 07:57:08;;;;;;;;;;;;;;;35.08;51.93;97514.16;4985695;28;20365;-70
2022/09/16 07:59:57;;;;;;;;;;;;;;;34.62;52.85;97512.34;4986231;28;19983;-72
2022/09/16 08:02:52;;;;;;;;;;;;;;;34.52;53.68;97505.63;4985391;28;19925;-71
2022/09/16 08:05:47;;;;;;;;;;;;;;;35.04;53.09;97496.66;4986948;28;19926;-71
2022/09/16 08:08:36;;;;;;;;;;;;;;;35.43;51.33;97499.22;4986277;28;19925;-72
2022/09/16 08:11:27;;;;;;;;;;;;;;;35.40;51.41;97486.09;4979112;28;19932;-72
2022/09/16 08:14:08;;;;;;;;;;;;;;;35.37;51.84;97486.94;5007089;28;19940;-71
2022/09/16 08:16:59;;;;;;;;;;;;;;;34.65;52.20;97475.34;5005787;28;20389;-70
2022/09/16 08:19:41;;;;;;;;;;;;;;;34.63;52.42;97472.16;4990891;28;19936;-71
2022/09/16 08:22:30;;;;;;;;;;;;;;;34.85;52.51;97470.06;5008480;28;20425;-72
2022/09/16 08:25:26;;;;;;;;;;;;;;;35.07;52.23;97462.41;5003548;28;19925;-73
2022/09/16 08:28:15;;;;;;;;;;;;;;;35.05;52.39;97457.22;5007565;28;19925;-73
2022/09/16 08:30:58;;;;;;;;;;;;;;;35.13;52.86;97443.25;5016832;28;19943;-72
2022/09/16 08:33:46;;;;;;;;;;;;;;;35.39;51.72;97439.06;5007920;28;19922;-72
2022/09/16 08:36:32;;;;;;;;;;;;;;;35.54;52.21;97437.78;4991161;28;19929;-73
2022/09/16 08:39:20;;;;;;;;;;;;;;;35.46;51.78;97433.44;5005544;28;20575;-72
2022/09/16 08:42:13;;;;;;;;;;;;;;;35.55;51.50;97419.81;5007178;28;19936;-72
2022/09/16 08:45:08;;;;;;;;;;;;;;;34.47;52.34;97414.09;4990900;28;19956;-72
2022/09/16 08:48:03;;;;;;;;;;;;;;;34.92;51.45;97405.94;5007195;28;19984;-73
2022/09/16 08:50:51;;;;;;;;;;;;;;;35.08;51.76;97405.41;4989573;28;19925;-72
2022/09/16 08:53:45;;;;;;;;;;;;;;;34.31;51.31;97401.44;5007910;28;20028;-73
2022/09/16 08:56:29;;;;;;;;;;;;;;;35.07;51.64;97395.47;5006466;28;19952;-72
2022/09/16 08:59:29;;;;;;;;;;;;;;;35.02;50.10;97382.75;5007337;28;20024;-71
2022/09/16 09:02:23;;;;;;;;;;;;;;;35.20;51.11;97379.88;5007366;28;19956;-72
2022/09/16 09:05:24;;;;;;;;;;;;;;;35.22;51.43;97374.66;5011940;28;20029;-71
2022/09/16 09:08:22;;;;;;;;;;;;;;;34.93;51.26;97367.69;5018747;28;20367;-72
2022/09/16 09:11:17;;;;;;;;;;;;;;;34.89;50.55;97368.53;5007704;28;19929;-73
2022/09/16 09:14:30;;;;;;;;;;;;;;;34.28;52.06;97362.47;5007500;28;19925;-73
2022/09/16 09:17:12;;;;;;;;;;;;;;;34.90;51.84;97356.16;4984168;28;19931;-73
2022/09/16 09:20:25;;;;;;;;;;;;;;;34.67;51.94;97350.38;4997305;28;20084;-73
2022/09/16 09:23:08;;;;;;;;;;;;;;;35.04;51.77;97340.53;5008255;28;19976;-72
2022/09/16 09:25:58;;;;;;;;;;;;;;;34.78;53.76;97350.28;4991584;28;19925;-72
2022/09/16 09:28:55;;;;;;;;;;;;;;;34.68;52.42;97343.56;4992353;28;20560;-74
2022/09/16 09:31:46;;;;;;;;;;;;;;;34.79;53.94;97335.16;4989696;28;19956;-73
2022/09/16 09:34:55;;;;;;;;;;;;;;;34.97;52.13;97330.25;5005888;28;20003;-73
2022/09/16 09:37:49;;;;;;;;;;;;;;;34.96;51.89;97328.63;5004988;28;20068;-73
2022/09/16 09:40:59;;;;;;;;;;;;;;;34.89;51.42;97321.13;4988636;28;19925;-74
2022/09/16 09:43:56;;;;;;;;;;;;;;;35.10;51.54;97322.97;5001373;28;20032;-74
2022/09/16 09:46:42;;;;;;;;;;;;;;;35.12;51.63;97321.75;4987537;28;19979;-74
2022/09/16 09:49:42;;;;;;;;;;;;;;;34.43;52.71;97313.06;4990980;28;19925;-74
2022/09/16 09:52:45;;;;;;;;;;;;;;;35.02;53.34;97312.25;4990137;28;19983;-73
2022/09/16 09:55:31;;;;;;;;;;;;;;;34.88;53.85;97305.59;4986014;28;19997;-72
2022/09/16 09:58:24;;;;;;;;;;;;;;;34.93;55.51;97306.38;5003761;28;19964;-72
2022/09/16 10:01:07;;;;;;;;;;;;;;;35.18;53.42;97295.84;4998607;28;19937;-68
2022/09/16 10:03:59;;;;;;;;;;;;;;;34.96;52.23;97299.97;5003610;28;19952;-70
2022/09/16 10:06:58;;;;;;;;;;;;;;;35.06;51.06;97288.75;4653928;28;9999914;-73
2022/09/16 10:09:58;;;;;;;;;;;;;;;35.19;51.52;97286.25;5000215;28;19964;-73
2022/09/16 10:12:53;;;;;;;;;;;;;;;35.37;51.33;97280.50;5011405;28;19941;-71
2022/09/16 10:15:41;;;;;;;;;;;;;;;35.11;51.80;97279.13;5016828;28;19995;-71
2022/09/16 10:18:30;;;;;;;;;;;;;;;35.24;52.58;97276.66;5005252;28;19984;-72
2022/09/16 10:21:28;;;;;;;;;;;;;;;35.27;50.20;97273.84;5004183;28;19925;-72
2022/09/16 10:24:05;;;;;;;;;;;;;;;35.23;49.76;97270.25;5003468;28;19989;-70
2022/09/16 10:26:53;;;;;;;;;;;;;;;35.38;50.49;97264.56;5005523;28;19952;-71
2022/09/16 10:29:37;;;;;;;;;;;;;;;35.39;50.73;97260.53;5005324;28;20380;-72
2022/09/16 10:32:25;;;;;;;;;;;;;;;35.16;52.45;97266.72;5002834;28;19932;-71
2022/09/16 10:35:12;;;;;;;;;;;;;;;34.92;51.13;97249.81;4991702;28;19921;-71
2022/09/16 10:38:01;;;;;;;;;;;;;;;35.10;52.21;97258.00;5008651;28;19925;-71
2022/09/16 10:41:08;;;;;;;;;;;;;;;34.91;51.46;97253.81;5009182;28;20126;-72
2022/09/16 10:44:02;;;;;;;;;;;;;;;34.73;51.46;97258.75;4993473;28;20364;-73
2022/09/16 10:47:04;;;;;;;;;;;;;;;34.72;51.53;97260.75;5006525;28;20030;-72
2022/09/16 10:49:57;;;;;;;;;;;;;;;34.87;51.30;97261.41;5001498;28;20327;-75
2022/09/16 10:52:43;;;;;;;;;;;;;;;34.77;54.55;97251.94;4998103;28;19925;-70
2022/09/16 10:55:40;;;;;;;;;;;;;;;34.54;53.88;97260.06;4989627;28;20581;-71
2022/09/16 10:58:21;;;;;;;;;;;;;;;34.66;52.80;97256.78;5006018;28;19937;-71
2022/09/16 11:01:19;;;;;;;;;;;;;;;34.67;52.14;97256.41;5009148;28;19925;-72
2022/09/16 11:04:19;;;;;;;;;;;;;;;34.33;52.50;97259.00;5009690;28;19922;-71
2022/09/16 11:07:09;;;;;;;;;;;;;;;34.29;53.90;97249.91;5008888;28;20383;-73
2022/09/16 11:10:15;;;;;;;;;;;;;;;34.41;54.88;97243.03;5009708;28;19964;-70
2022/09/16 11:13:14;;;;;;;;;;;;;;;34.42;54.96;97242.63;5004220;28;19932;-69
2022/09/16 11:16:00;;;;;;;;;;;;;;;34.63;53.87;97246.47;5009839;28;19930;-71
2022/09/16 11:19:06;;;;;;;;;;;;;;;34.60;53.51;97250.06;5009121;28;19965;-72
2022/09/16 11:22:17;;;;;;;;;;;;;;;34.63;52.62;97255.63;4997189;28;19939;-72
2022/09/16 11:25:25;;;;;;;;;;;;;;;34.59;54.62;97256.84;5009601;28;20023;-72
2022/09/16 11:28:17;;;;;;;;;;;;;;;34.31;55.24;97250.28;5008399;28;20407;-71
2022/09/16 11:31:24;;;;;;;;;;;;;;;34.23;56.75;97254.31;5008637;28;19925;-71
2022/09/16 11:34:14;;;;;;;;;;;;;;;34.17;55.40;97250.38;5009437;28;19925;-71
2022/09/16 11:37:09;;;;;;;;;;;;;;;34.20;54.87;97249.56;5008360;28;19925;-71
2022/09/16 11:39:53;;;;;;;;;;;;;;;34.05;55.22;97252.41;5008161;28;19928;-70
2022/09/16 11:42:52;;;;;;;;;;;;;;;34.21;55.52;97251.16;5017223;28;20544;-71
2022/09/16 11:45:43;;;;;;;;;;;;;;;34.11;55.63;97261.91;5011922;28;19956;-70
2022/09/16 11:48:50;;;;;;;;;;;;;;;34.19;55.91;97265.47;5007000;28;19936;-71
2022/09/16 11:51:53;;;;;;;;;;;;;;;34.12;57.07;97257.13;5001008;28;20000;-71
2022/09/16 11:54:37;;;;;;;;;;;;;;;34.12;55.45;97252.34;4988962;28;20424;-72
2022/09/16 11:57:34;;;;;;;;;;;;;;;34.13;56.90;97261.50;4981131;28;20583;-72
2022/09/16 12:00:24;;;;;;;;;;;;;;;34.01;55.49;97259.94;5008391;28;19925;-71
2022/09/16 12:03:22;;;;;;;;;;;;;;;34.15;55.11;97259.09;5007300;28;19983;-70
2022/09/16 12:06:14;;;;;;;;;;;;;;;34.18;55.09;97258.31;5007809;28;19956;-70
2022/09/16 12:09:01;;;;;;;;;;;;;;;34.22;54.99;97252.72;5006078;28;20008;-71
2022/09/16 12:11:53;;;;;;;;;;;;;;;34.20;55.30;97249.56;5002989;28;19933;-71
2022/09/16 12:14:45;;;;;;;;;;;;;;;34.25;55.37;97257.47;5006910;28;19921;-70
2022/09/16 12:17:30;;;;;;;;;;;;;;;33.98;54.79;97266.34;5006678;28;19939;-71
2022/09/16 12:20:28;;;;;;;;;;;;;;;34.10;55.55;97270.66;5008586;28;19988;-70
2022/09/16 12:23:07;;;;;;;;;;;;;;;33.91;55.90;97263.59;5010201;28;20506;-72
2022/09/16 12:26:00;;;;;;;;;;;;;;;33.88;55.04;97269.97;4997743;28;19922;-72
2022/09/16 12:29:02;;;;;;;;;;;;;;;34.03;56.31;97259.56;5005814;28;20487;-71
2022/09/16 12:32:07;;;;;;;;;;;;;;;34.07;56.00;97268.66;5008468;28;20403;-71
2022/09/16 12:35:04;;;;;;;;;;;;;;;34.01;55.87;97271.09;5006513;28;19932;-73
2022/09/16 12:37:50;;;;;;;;;;;;;;;33.98;57.27;97265.56;5007018;28;19926;-72
2022/09/16 12:40:49;;;;;;;;;;;;;;;33.89;57.46;97263.22;5008218;28;19937;-73
2022/09/16 12:43:41;;;;;;;;;;;;;;;33.86;55.63;97264.81;4988294;28;20444;-69
2022/09/16 12:46:51;;;;;;;;;;;;;;;33.83;55.74;97265.63;5002658;28;19925;-71
2022/09/16 12:49:58;;;;;;;;;;;;;;;33.89;56.62;97266.78;5006515;28;20464;-69
2022/09/16 12:53:03;;;;;;;;;;;;;;;33.84;56.41;97267.22;4999834;28;19922;-70
2022/09/16 12:55:52;;;;;;;;;;;;;;;33.80;59.03;97265.63;5005777;28;19929;-71
2022/09/16 12:58:54;;;;;;;;;;;;;;;33.77;58.39;97272.81;5007150;28;19956;-70
2022/09/16 13:01:48;;;;;;;;;;;;;;;33.77;58.33;97274.81;5006077;28;20257;-71
2022/09/16 13:04:54;;;;;;;;;;;;;;;33.59;58.38;97272.81;5006302;28;20000;-70
2022/09/16 13:07:42;;;;;;;;;;;;;;;33.44;58.72;97276.84;5007572;28;19928;-73
2022/09/16 13:10:41;;;;;;;;;;;;;;;33.38;59.08;97275.69;5009992;28;20252;-71
2022/09/16 13:14:00;;;;;;;;;;;;;;;33.54;59.57;97281.59;4969061;28;19926;-70
2022/09/16 13:16:38;;;;;;;;;;;;;;;33.51;60.18;97285.97;4983908;28;19960;-70
2022/09/16 13:19:59;;;;;;;;;;;;;;;33.53;60.00;97285.56;4984377;28;19925;-71
2022/09/16 13:22:44;;;;;;;;;;;;;;;33.49;61.70;97282.00;4963628;28;20043;-71
2022/09/16 13:25:43;;;;;;;;;;;;;;;33.23;61.33;97283.25;4986366;28;19929;-69
2022/09/16 13:28:39;;;;;;;;;;;;;;;33.30;60.83;97281.25;4968592;28;19925;-71
2022/09/16 13:31:36;;;;;;;;;;;;;;;33.30;61.44;97288.81;4978864;28;20674;-70
2022/09/16 13:34:16;;;;;;;;;;;;;;;33.19;61.68;97286.06;5002739;28;19932;-68
2022/09/16 13:37:21;;;;;;;;;;;;;;;32.94;62.19;97292.41;5006992;28;19925;-71
2022/09/16 13:40:20;;;;;;;;;;;;;;;33.09;61.80;97300.72;4624655;28;9999738;-69
2022/09/16 13:43:09;;;;;;;;;;;;;;;33.08;62.25;97302.72;4951208;28;19926;-68
2022/09/16 13:46:07;;;;;;;;;;;;;;;32.73;62.71;97303.50;4975219;28;19922;-69
2022/09/16 13:49:12;;;;;;;;;;;;;;;32.51;64.77;97305.44;4981662;28;20016;-68
2022/09/16 13:52:10;;;;;;;;;;;;;;;32.49;65.39;97303.03;4983377;28;19926;-69
2022/09/16 13:54:56;;;;;;;;;;;;;;;32.63;65.37;97310.63;4984777;28;20412;-69
2022/09/16 13:57:58;;;;;;;;;;;;;;;32.44;66.42;97313.75;4999007;28;19925;-68
2022/09/16 14:00:53;;;;;;;;;;;;;;;32.35;67.00;97314.09;4982757;28;20356;-69
2022/09/16 14:03:53;;;;;;;;;;;;;;;32.13;67.05;97308.50;4963896;28;20527;-69
2022/09/16 14:06:31;;;;;;;;;;;;;;;31.88;68.79;97318.69;4959565;28;19925;-71
2022/09/16 14:09:45;;;;;;;;;;;;;;;31.89;68.56;97318.31;4985605;28;19930;-69
2022/09/16 14:12:45;;;;;;;;;;;;;;;32.37;67.54;97322.88;4996858;28;20577;-70
2022/09/16 14:15:42;;;;;;;;;;;;;;;32.44;67.48;97328.41;5000660;28;19932;-69
2022/09/16 14:18:39;;;;;;;;;;;;;;;32.25;67.17;97331.53;4957714;28;19963;-68
2022/09/16 14:21:27;;;;;;;;;;;;;;;32.02;68.98;97340.19;4982277;28;19953;-69
2022/09/16 14:24:33;;;;;;;;;;;;;;;32.05;68.57;97344.97;4986524;28;20039;-70
2022/09/16 14:27:29;;;;;;;;;;;;;;;32.15;67.70;97350.53;4638244;28;9999745;-69
2022/09/16 14:30:26;;;;;;;;;;;;;;;32.26;68.20;97347.03;4983791;28;20272;-68
2022/09/16 14:33:14;;;;;;;;;;;;;;;32.12;68.05;97351.34;4983157;28;19960;-69
2022/09/16 14:36:00;;;;;;;;;;;;;;;32.21;67.80;97347.41;4984857;28;19984;-68
2022/09/16 14:38:54;;;;;;;;;;;;;;;32.14;67.63;97354.50;4989092;28;19980;-69
2022/09/16 14:41:42;;;;;;;;;;;;;;;31.90;68.81;97355.16;4981332;28;20355;-69
2022/09/16 14:44:31;;;;;;;;;;;;;;;31.91;68.66;97353.97;4986332;28;19977;-69
2022/09/16 14:47:19;;;;;;;;;;;;;;;32.00;69.17;97360.75;4950268;28;20019;-70
2022/09/16 14:50:38;;;;;;;;;;;;;;;31.87;69.02;97364.25;4966711;28;19933;-69